createdAt,value
2022-12-03T00:00:29.182Z,98637.78
2022-12-03T00:02:55.895Z,98629.47
2022-12-03T00:05:22.605Z,98629.81
2022-12-03T00:07:49.267Z,98624.16
2022-12-03T00:10:16.095Z,98617.31
2022-12-03T00:12:42.687Z,98622.72
2022-12-03T00:15:10.308Z,98625.22
2022-12-03T00:17:37.202Z,98624.16
2022-12-03T00:20:06.071Z,98623.53
2022-12-03T00:22:32.685Z,98620.22
2022-12-03T00:24:59.379Z,98624.28
2022-12-03T00:27:26.637Z,98625.88
2022-12-03T00:29:53.314Z,98624.22
2022-12-03T00:32:19.976Z,98621.97
2022-12-03T00:34:46.612Z,98626.38
2022-12-03T00:37:13.228Z,98625.06
2022-12-03T00:39:39.887Z,98622.03
2022-12-03T00:42:06.507Z,98623.06
2022-12-03T00:44:33.160Z,98622.06
2022-12-03T00:47:00.032Z,98615.09
2022-12-03T00:49:26.801Z,98611.00
2022-12-03T00:51:53.480Z,98610.16
2022-12-03T00:54:20.193Z,98597.13
2022-12-03T00:56:46.838Z,98599.44
2022-12-03T00:59:13.570Z,98592.78
2022-12-03T01:01:40.484Z,98598.44
2022-12-03T01:04:07.620Z,98601.06
2022-12-03T01:06:34.280Z,98595.53
2022-12-03T01:09:00.952Z,98600.56
2022-12-03T01:11:40.744Z,98603.22
2022-12-03T01:14:17.331Z,98606.81
2022-12-03T01:16:44.636Z,98599.84
2022-12-03T01:19:15.940Z,98602.53
2022-12-03T01:21:51.461Z,98607.56
2022-12-03T01:24:18.829Z,98604.97
2022-12-03T01:26:45.447Z,98612.38
2022-12-03T01:29:12.322Z,98606.34
2022-12-03T01:31:57.450Z,98604.78
2022-12-03T01:34:24.134Z,98595.00
2022-12-03T01:36:52.431Z,98591.97
2022-12-03T01:39:19.470Z,98596.03
2022-12-03T01:41:47.583Z,98597.78
2022-12-03T01:44:19.541Z,98601.94
2022-12-03T01:46:47.382Z,98605.47
2022-12-03T01:49:19.262Z,98593.63
2022-12-03T01:51:47.630Z,98600.22
2022-12-03T01:54:18.515Z,98601.00
2022-12-03T01:56:46.167Z,98599.56
2022-12-03T01:59:21.715Z,98605.53
2022-12-03T02:01:48.705Z,98605.59
2022-12-03T02:04:17.386Z,98594.72
2022-12-03T02:06:44.804Z,98590.59
2022-12-03T02:09:13.156Z,98586.31
2022-12-03T02:11:44.318Z,98595.63
2022-12-03T02:14:17.057Z,98597.22
2022-12-03T02:16:44.411Z,98588.97
2022-12-03T02:19:26.659Z,98583.13
2022-12-03T02:22:11.504Z,98577.97
2022-12-03T02:25:05.539Z,98579.69
2022-12-03T02:27:32.379Z,98574.44
2022-12-03T02:29:59.039Z,98579.47
2022-12-03T02:32:25.796Z,98571.13
2022-12-03T02:34:52.801Z,98583.88
2022-12-03T02:37:29.544Z,98572.22
2022-12-03T02:39:59.184Z,98576.75
2022-12-03T02:42:35.505Z,98574.13
2022-12-03T02:45:15.238Z,98566.69
2022-12-03T02:47:48.343Z,98562.97
2022-12-03T02:50:19.488Z,98565.47
2022-12-03T02:52:47.472Z,98559.31
2022-12-03T02:55:18.026Z,98561.69
2022-12-03T02:57:48.227Z,98558.22
2022-12-03T03:00:16.270Z,98569.47
2022-12-03T03:02:44.166Z,98569.41
2022-12-03T03:05:12.517Z,98565.56
2022-12-03T03:07:40.231Z,98555.47
2022-12-03T03:10:11.320Z,98557.28
2022-12-03T03:12:39.555Z,98567.72
2022-12-03T03:15:07.807Z,98567.84
2022-12-03T03:17:34.919Z,98572.75
2022-12-03T03:20:02.865Z,98563.31
2022-12-03T03:22:38.592Z,98561.47
2022-12-03T03:25:06.140Z,98566.28
2022-12-03T03:27:33.161Z,98560.25
2022-12-03T03:30:00.477Z,98558.69
2022-12-03T03:32:28.803Z,98558.81
2022-12-03T03:34:56.481Z,98571.66
2022-12-03T03:37:24.026Z,98560.53
2022-12-03T03:39:50.976Z,98559.50
2022-12-03T03:42:17.791Z,98567.50
2022-12-03T03:44:44.657Z,98565.22
2022-12-03T03:47:12.288Z,98564.25
2022-12-03T03:49:39.208Z,98568.34
2022-12-03T03:52:06.592Z,98571.75
2022-12-03T03:54:33.505Z,98563.59
2022-12-03T03:57:00.113Z,98564.31
2022-12-03T03:59:26.942Z,98558.97
2022-12-03T04:01:53.558Z,98557.50
2022-12-03T04:04:23.203Z,98544.41
2022-12-03T04:06:50.442Z,98551.09
2022-12-03T04:09:17.143Z,98553.75
2022-12-03T04:12:02.399Z,98553.44
2022-12-03T04:14:29.108Z,98550.44
2022-12-03T04:16:55.835Z,98556.25
2022-12-03T04:19:22.578Z,98559.59
2022-12-03T04:22:07.950Z,98553.69
2022-12-03T04:24:34.703Z,98556.78
2022-12-03T04:27:19.982Z,98552.91
2022-12-03T04:29:46.580Z,98552.03
2022-12-03T04:32:31.564Z,98553.81
2022-12-03T04:35:16.789Z,98541.72
2022-12-03T04:37:43.595Z,98546.53
2022-12-03T04:40:30.362Z,98541.38
2022-12-03T04:42:57.048Z,98541.44
2022-12-03T04:45:23.615Z,98538.09
2022-12-03T04:47:50.365Z,98537.03
2022-12-03T04:50:16.982Z,98534.34
2022-12-03T04:52:43.726Z,98533.31
2022-12-03T04:55:10.325Z,98533.13
2022-12-03T04:57:37.017Z,98535.56
2022-12-03T05:00:06.336Z,98533.25
2022-12-03T05:02:33.111Z,98540.91
2022-12-03T05:04:59.762Z,98542.00
2022-12-03T05:07:26.462Z,98543.91
2022-12-03T05:09:53.088Z,98534.59
2022-12-03T05:12:19.748Z,98537.09
2022-12-03T05:14:46.363Z,98532.63
2022-12-03T05:17:13.057Z,98537.47
2022-12-03T05:19:58.215Z,98534.91
2022-12-03T05:22:25.010Z,98539.22
2022-12-03T05:24:51.840Z,98529.72
2022-12-03T05:27:23.398Z,98533.88
2022-12-03T05:29:50.696Z,98524.50
2022-12-03T05:32:17.326Z,98517.09
2022-12-03T05:34:44.039Z,98527.09
2022-12-03T05:37:11.093Z,98519.34
2022-12-03T05:39:38.194Z,98512.13
2022-12-03T05:42:23.854Z,98518.16
2022-12-03T05:44:50.423Z,98520.72
2022-12-03T05:47:17.072Z,98519.22
2022-12-03T05:49:43.912Z,98516.78
2022-12-03T05:52:10.576Z,98509.19
2022-12-03T05:54:37.333Z,98505.81
2022-12-03T05:57:04.791Z,98499.28
2022-12-03T05:59:31.508Z,98501.19
2022-12-03T06:01:58.048Z,98492.88
2022-12-03T06:04:24.756Z,98493.31
2022-12-03T06:06:51.330Z,98490.66
2022-12-03T06:09:18.016Z,98494.81
2022-12-03T06:11:44.659Z,98488.75
2022-12-03T06:14:11.316Z,98489.56
2022-12-03T06:16:37.933Z,98491.00
2022-12-03T06:19:04.696Z,98497.72
2022-12-03T06:21:31.288Z,98474.41
2022-12-03T06:23:58.180Z,98495.88
2022-12-03T06:26:24.824Z,98500.03
2022-12-03T06:28:51.500Z,98494.00
2022-12-03T06:31:18.325Z,98506.44
2022-12-03T06:33:45.070Z,98497.88
2022-12-03T06:36:12.626Z,98495.75
2022-12-03T06:38:39.355Z,98492.16
2022-12-03T06:41:06.054Z,98486.44
2022-12-03T06:43:32.855Z,98480.72
2022-12-03T06:45:59.462Z,98492.69
2022-12-03T06:48:26.170Z,98490.72
2022-12-03T06:50:52.764Z,98493.09
2022-12-03T06:53:19.440Z,98496.50
2022-12-03T06:55:46.232Z,98499.84
2022-12-03T06:58:12.948Z,98498.00
2022-12-03T07:00:39.605Z,98496.28
2022-12-03T07:03:06.488Z,98492.72
2022-12-03T07:05:33.194Z,98497.94
2022-12-03T07:08:00.098Z,98499.72
2022-12-03T07:10:26.794Z,98500.84
2022-12-03T07:12:53.448Z,98495.78
2022-12-03T07:15:20.076Z,98497.13
2022-12-03T07:17:46.700Z,98498.56
2022-12-03T07:20:16.298Z,98500.75
2022-12-03T07:22:42.962Z,98493.84
2022-12-03T07:25:10.058Z,98502.31
2022-12-03T07:27:36.701Z,98505.72
2022-12-03T07:30:04.053Z,98502.22
2022-12-03T07:32:30.770Z,98501.25
2022-12-03T07:34:57.375Z,98500.31
2022-12-03T07:37:24.095Z,98501.94
2022-12-03T07:39:52.426Z,98502.63
2022-12-03T07:42:19.171Z,98505.69
2022-12-03T07:44:45.757Z,98497.94
2022-12-03T07:47:12.384Z,98499.16
2022-12-03T07:49:39.006Z,98501.13
2022-12-03T07:52:07.264Z,98499.94
2022-12-03T07:54:34.218Z,98496.34
2022-12-03T07:57:01.979Z,98498.63
2022-12-03T07:59:29.078Z,98497.16
2022-12-03T08:01:55.911Z,98495.09
2022-12-03T08:04:22.605Z,98504.91
2022-12-03T08:06:49.437Z,98492.94
2022-12-03T08:09:16.580Z,98487.13
2022-12-03T08:11:47.687Z,98489.44
2022-12-03T08:14:19.678Z,98495.34
2022-12-03T08:16:47.890Z,98494.53
2022-12-03T08:19:17.167Z,98494.97
2022-12-03T08:21:44.361Z,98493.53
2022-12-03T08:24:20.444Z,98506.78
2022-12-03T08:26:48.856Z,98498.41
2022-12-03T08:29:18.083Z,98499.13
2022-12-03T08:31:52.183Z,98492.34
2022-12-03T08:34:21.378Z,98491.53
2022-12-03T08:37:20.947Z,98495.81
2022-12-03T08:39:50.187Z,98491.59
2022-12-03T08:42:41.809Z,98488.38
2022-12-03T08:45:39.369Z,98489.09
2022-12-03T08:48:28.494Z,98494.09
2022-12-03T08:50:57.923Z,98493.91
2022-12-03T08:53:32.601Z,98499.00
2022-12-03T08:56:00.698Z,98497.88
2022-12-03T08:58:36.367Z,98497.06
2022-12-03T09:01:11.992Z,98497.94
2022-12-03T09:03:48.338Z,98490.22
2022-12-03T09:06:14.975Z,98492.63
2022-12-03T09:08:41.499Z,98490.09
2022-12-03T09:11:08.195Z,98485.84
2022-12-03T09:13:34.847Z,98480.81
2022-12-03T09:16:01.531Z,98483.94
2022-12-03T09:18:28.202Z,98483.16
2022-12-03T09:20:55.616Z,98490.63
2022-12-03T09:23:22.224Z,98493.03
2022-12-03T09:25:48.892Z,98489.81
2022-12-03T09:28:15.647Z,98494.19
2022-12-03T09:30:42.588Z,98499.91
2022-12-03T09:33:10.526Z,98486.88
2022-12-03T09:35:37.299Z,98487.13
2022-12-03T09:38:03.882Z,98488.09
2022-12-03T09:40:30.731Z,98489.28
2022-12-03T09:42:58.684Z,98491.94
2022-12-03T09:45:25.628Z,98492.84
2022-12-03T09:47:52.616Z,98486.78
2022-12-03T09:50:23.041Z,98486.72
2022-12-03T09:52:51.936Z,98478.31
2022-12-03T09:55:23.407Z,98482.16
2022-12-03T09:57:52.490Z,98481.16
2022-12-03T10:00:28.200Z,98477.81
2022-12-03T10:02:59.094Z,98482.03
2022-12-03T10:05:25.973Z,98478.53
2022-12-03T10:08:12.086Z,98480.91
2022-12-03T10:10:41.821Z,98480.28
2022-12-03T10:13:15.353Z,98478.34
2022-12-03T10:15:42.052Z,98476.69
2022-12-03T10:18:21.348Z,98473.31
2022-12-03T10:20:48.176Z,98478.34
2022-12-03T10:23:27.024Z,98463.16
2022-12-03T10:25:59.268Z,98474.00
2022-12-03T10:28:31.058Z,98473.88
2022-12-03T10:30:59.109Z,98478.03
2022-12-03T10:33:35.241Z,98469.53
2022-12-03T10:36:18.453Z,98468.44
2022-12-03T10:38:45.590Z,98463.25
2022-12-03T10:41:28.639Z,98459.53
2022-12-03T10:44:16.653Z,98451.97
2022-12-03T10:46:44.093Z,98452.69
2022-12-03T10:49:17.169Z,98438.28
2022-12-03T10:51:45.780Z,98445.88
2022-12-03T10:54:22.504Z,98446.88
2022-12-03T10:56:51.372Z,98439.34
2022-12-03T10:59:32.314Z,98434.38
2022-12-03T11:01:59.344Z,98445.41
2022-12-03T11:04:32.549Z,98426.13
2022-12-03T11:07:01.823Z,98437.66
2022-12-03T11:09:31.962Z,98435.66
2022-12-03T11:12:06.250Z,98433.09
2022-12-03T11:14:51.767Z,98426.81
2022-12-03T11:17:40.487Z,98429.41
2022-12-03T11:20:25.235Z,98421.88
2022-12-03T11:22:53.421Z,98421.19
2022-12-03T11:25:28.681Z,98422.13
2022-12-03T11:28:13.343Z,98418.69
2022-12-03T11:30:49.733Z,98416.56
2022-12-03T11:33:27.268Z,98419.94
2022-12-03T11:36:13.428Z,98416.56
2022-12-03T11:38:52.960Z,98415.81
2022-12-03T11:41:25.146Z,98412.13
2022-12-03T11:43:57.727Z,98413.06
2022-12-03T11:46:50.670Z,98401.19
2022-12-03T11:49:25.579Z,98401.06
2022-12-03T11:51:52.552Z,98407.03
2022-12-03T11:54:23.307Z,98399.78
2022-12-03T11:56:52.242Z,98403.88
2022-12-03T11:59:19.726Z,98400.50
2022-12-03T12:01:46.540Z,98402.88
2022-12-03T12:04:34.353Z,98392.66
2022-12-03T12:07:02.220Z,98387.22
2022-12-03T12:09:52.495Z,98395.97
2022-12-03T12:12:31.643Z,98390.72
2022-12-03T12:14:59.621Z,98387.69
2022-12-03T12:17:34.306Z,98385.06
2022-12-03T12:20:25.898Z,98384.34
2022-12-03T12:22:54.444Z,98377.97
2022-12-03T12:25:30.342Z,98385.88
2022-12-03T12:27:57.505Z,98385.13
2022-12-03T12:30:24.148Z,98385.63
2022-12-03T12:33:01.395Z,98386.31
2022-12-03T12:35:32.500Z,98380.94
2022-12-03T12:38:08.710Z,98385.44
2022-12-03T12:40:38.464Z,98384.72
2022-12-03T12:43:15.355Z,98385.75
2022-12-03T12:45:45.013Z,98384.66
2022-12-03T12:48:31.906Z,98378.59
2022-12-03T12:51:21.083Z,98383.97
2022-12-03T12:53:49.784Z,98385.00
2022-12-03T12:56:23.804Z,98375.75
2022-12-03T12:58:50.815Z,98364.00
2022-12-03T13:01:25.576Z,98377.06
2022-12-03T13:03:53.117Z,98374.00
2022-12-03T13:06:25.924Z,98368.97
2022-12-03T13:08:53.122Z,98373.69
2022-12-03T13:11:25.262Z,98358.38
2022-12-03T13:13:52.310Z,98370.31
2022-12-03T13:16:21.396Z,98364.44
2022-12-03T13:18:53.278Z,98362.63
2022-12-03T13:21:39.736Z,98357.81
2022-12-03T13:24:31.339Z,98366.88
2022-12-03T13:26:59.857Z,98360.09
2022-12-03T13:29:28.170Z,98357.53
2022-12-03T13:31:54.873Z,98371.16
2022-12-03T13:34:24.397Z,98364.44
2022-12-03T13:36:57.650Z,98364.44
2022-12-03T13:39:35.111Z,98358.31
2022-12-03T13:42:41.581Z,98350.88
2022-12-03T13:45:08.291Z,98355.25
2022-12-03T13:47:34.960Z,98354.38
2022-12-03T13:50:05.231Z,98346.78
2022-12-03T13:52:34.548Z,98344.22
2022-12-03T13:55:06.814Z,98343.38
2022-12-03T13:57:33.483Z,98335.78
2022-12-03T14:00:00.109Z,98328.72
2022-12-03T14:02:26.824Z,98335.56
2022-12-03T14:04:59.861Z,98322.84
2022-12-03T14:07:27.107Z,98326.16
2022-12-03T14:09:53.999Z,98325.28
2022-12-03T14:12:25.919Z,98328.44
2022-12-03T14:14:53.536Z,98331.91
2022-12-03T14:17:31.973Z,98332.94
2022-12-03T14:20:04.323Z,98330.44
2022-12-03T14:22:46.566Z,98329.72
2022-12-03T14:25:15.066Z,98334.84
2022-12-03T14:27:42.959Z,98337.31
2022-12-03T14:30:10.147Z,98336.09
2022-12-03T14:32:36.729Z,98338.09
2022-12-03T14:35:08.294Z,98338.03
2022-12-03T14:37:37.608Z,98340.38
2022-12-03T14:40:10.622Z,98335.03
2022-12-03T14:42:39.272Z,98348.81
2022-12-03T14:45:06.848Z,98346.41
2022-12-03T14:47:33.464Z,98349.56
2022-12-03T14:50:00.173Z,98353.94
2022-12-03T14:52:28.432Z,98345.56
2022-12-03T14:54:58.210Z,98348.63
2022-12-03T14:57:25.923Z,98355.31
2022-12-03T14:59:53.056Z,98352.84
2022-12-03T15:02:37.840Z,98366.47
2022-12-03T15:05:14.108Z,98366.63
2022-12-03T15:07:40.900Z,98367.50
2022-12-03T15:10:08.202Z,98368.59
2022-12-03T15:12:34.855Z,98374.47
2022-12-03T15:15:01.421Z,98375.34
2022-12-03T15:17:31.897Z,98373.69
2022-12-03T15:19:58.983Z,98375.34
2022-12-03T15:22:25.753Z,98371.78
2022-12-03T15:24:52.348Z,98368.47
2022-12-03T15:27:18.923Z,98378.72
2022-12-03T15:29:45.703Z,98370.50
2022-12-03T15:32:50.303Z,98382.34
2022-12-03T15:35:21.963Z,98378.06
2022-12-03T15:37:48.581Z,98376.28
2022-12-03T15:40:15.218Z,98379.56
2022-12-03T15:42:41.956Z,98368.63
2022-12-03T15:45:14.801Z,98376.06
2022-12-03T15:47:41.839Z,98375.09
2022-12-03T15:50:08.716Z,98375.94
2022-12-03T15:52:35.466Z,98376.06
2022-12-03T15:55:02.363Z,98373.56
2022-12-03T15:57:29.587Z,98373.72
2022-12-03T15:59:56.556Z,98368.03
2022-12-03T16:02:25.001Z,98370.59
2022-12-03T16:04:51.619Z,98364.72
2022-12-03T16:07:18.271Z,98367.34
2022-12-03T16:09:50.421Z,98374.19
2022-12-03T16:12:18.292Z,98370.59
2022-12-03T16:14:45.368Z,98372.38
2022-12-03T16:17:16.196Z,98373.22
2022-12-03T16:19:43.375Z,98360.84
2022-12-03T16:22:10.029Z,98383.19
2022-12-03T16:25:01.427Z,98379.72
2022-12-03T16:28:25.301Z,98379.72
2022-12-03T16:31:17.111Z,98376.28
2022-12-03T16:33:55.642Z,98375.47
2022-12-03T16:36:29.974Z,98383.94
2022-12-03T16:39:39.347Z,98372.06
2022-12-03T16:42:10.181Z,98379.78
2022-12-03T16:45:08.579Z,98376.41
2022-12-03T16:47:38.003Z,98376.47
2022-12-03T16:50:11.603Z,98377.22
2022-12-03T16:52:40.863Z,98373.09
2022-12-03T16:55:07.880Z,98377.44
2022-12-03T16:57:34.516Z,98379.84
2022-12-03T17:00:02.533Z,98385.72
2022-12-03T17:02:29.753Z,98385.88
2022-12-03T17:04:56.451Z,98381.66
2022-12-03T17:07:23.209Z,98378.22
2022-12-03T17:09:49.912Z,98375.69
2022-12-03T17:12:16.611Z,98385.81
2022-12-03T17:14:43.278Z,98378.97
2022-12-03T17:17:09.957Z,98382.34
2022-12-03T17:19:36.640Z,98386.47
2022-12-03T17:22:03.384Z,98377.16
2022-12-03T17:24:30.025Z,98386.47
2022-12-03T17:26:56.809Z,98383.13
2022-12-03T17:29:23.495Z,98388.19
2022-12-03T17:31:50.269Z,98383.09
2022-12-03T17:34:16.992Z,98391.59
2022-12-03T17:36:43.893Z,98384.75
2022-12-03T17:39:10.581Z,98384.75
2022-12-03T17:41:37.250Z,98388.28
2022-12-03T17:44:09.719Z,98381.66
2022-12-03T17:46:37.347Z,98381.50
2022-12-03T17:49:04.029Z,98384.13
2022-12-03T17:51:30.838Z,98384.69
2022-12-03T17:53:57.425Z,98394.31
2022-12-03T17:56:24.227Z,98386.09
2022-12-03T17:58:50.918Z,98383.63
2022-12-03T18:01:17.708Z,98397.03
2022-12-03T18:03:44.716Z,98385.84
2022-12-03T18:06:11.385Z,98382.41
2022-12-03T18:08:38.019Z,98390.81
2022-12-03T18:11:04.757Z,98384.75
2022-12-03T18:13:31.376Z,98389.66
2022-12-03T18:15:58.083Z,98388.66
2022-12-03T18:18:24.850Z,98396.38
2022-12-03T18:20:53.200Z,98392.94
2022-12-03T18:23:19.988Z,98395.41
2022-12-03T18:25:46.672Z,98393.75
2022-12-03T18:28:13.330Z,98408.94
2022-12-03T18:30:39.988Z,98395.34
2022-12-03T18:33:06.908Z,98388.59
2022-12-03T18:35:33.757Z,98394.53
2022-12-03T18:38:00.516Z,98394.59
2022-12-03T18:40:27.336Z,98391.13
2022-12-03T18:42:55.313Z,98394.63
2022-12-03T18:45:21.997Z,98396.31
2022-12-03T18:47:49.444Z,98391.06
2022-12-03T18:50:16.285Z,98399.63
2022-12-03T18:52:42.907Z,98398.72
2022-12-03T18:55:16.427Z,98394.53
2022-12-03T18:57:43.140Z,98391.97
2022-12-03T19:00:13.742Z,98395.28
2022-12-03T19:05:28.127Z,98389.59
2022-12-03T19:07:57.590Z,98398.84
2022-12-03T19:10:25.132Z,98394.53
2022-12-03T19:12:51.725Z,98397.09
2022-12-03T19:15:18.628Z,98395.34
2022-12-03T19:17:51.414Z,98383.75
2022-12-03T19:20:18.163Z,98389.72
2022-12-03T19:22:44.733Z,98390.56
2022-12-03T19:25:11.420Z,98389.72
2022-12-03T19:27:38.116Z,98391.00
2022-12-03T19:30:05.729Z,98390.06
2022-12-03T19:32:34.505Z,98395.09
2022-12-03T19:35:04.983Z,98390.94
2022-12-03T19:37:33.881Z,98401.78
2022-12-03T19:40:01.090Z,98398.31
2022-12-03T19:42:28.063Z,98394.25
2022-12-03T19:44:54.686Z,98400.88
2022-12-03T19:47:21.382Z,98403.38
2022-12-03T19:49:48.110Z,98396.63
2022-12-03T19:52:14.866Z,98397.44
2022-12-03T19:54:41.495Z,98397.44
2022-12-03T19:57:08.883Z,98398.03
2022-12-03T19:59:35.588Z,98391.19
2022-12-03T20:02:02.358Z,98397.31
2022-12-03T20:04:29.180Z,98394.00
2022-12-03T20:06:56.035Z,98389.66
2022-12-03T20:09:22.621Z,98391.53
2022-12-03T20:11:51.120Z,98394.25
2022-12-03T20:14:18.194Z,98392.66
2022-12-03T20:16:46.028Z,98397.56
2022-12-03T20:19:15.052Z,98396.03
2022-12-03T20:21:42.777Z,98404.44
2022-12-03T20:24:14.590Z,98403.56
2022-12-03T20:26:41.808Z,98399.19
2022-12-03T20:29:08.628Z,98399.13
2022-12-03T20:31:35.397Z,98391.53
2022-12-03T20:34:03.663Z,98394.81
2022-12-03T20:36:32.230Z,98396.31
2022-12-03T20:39:01.885Z,98395.53
2022-12-03T20:41:29.252Z,98387.97
2022-12-03T20:43:56.581Z,98384.50
2022-12-03T20:46:26.250Z,98380.19
2022-12-03T20:48:54.008Z,98379.97
2022-12-03T20:51:24.007Z,98378.31
2022-12-03T20:53:51.034Z,98371.31
2022-12-03T20:56:24.614Z,98375.59
2022-12-03T20:58:51.459Z,98376.28
2022-12-03T21:01:20.758Z,98376.34
2022-12-03T21:03:49.190Z,98370.50
2022-12-03T21:06:17.663Z,98373.09
2022-12-03T21:08:45.119Z,98370.59
2022-12-03T21:11:14.762Z,98363.91
2022-12-03T21:13:43.657Z,98362.19
2022-12-03T21:16:13.061Z,98358.75
2022-12-03T21:18:41.072Z,98355.41
2022-12-03T21:21:10.331Z,98358.09
2022-12-03T21:23:37.101Z,98347.00
2022-12-03T21:26:03.759Z,98354.53
2022-12-03T21:28:30.818Z,98348.69
2022-12-03T21:31:09.452Z,98352.03
2022-12-03T21:33:36.857Z,98351.22
2022-12-03T21:36:04.875Z,98352.03
2022-12-03T21:38:32.699Z,98348.69
2022-12-03T21:41:00.203Z,98351.22
2022-12-03T21:43:27.604Z,98355.47
2022-12-03T21:45:54.767Z,98338.72
2022-12-03T21:48:22.154Z,98348.69
2022-12-03T21:51:02.169Z,98353.88
2022-12-03T21:53:30.076Z,98353.88
2022-12-03T21:55:56.765Z,98339.56
2022-12-03T21:58:23.605Z,98340.56
2022-12-03T22:00:50.787Z,98346.41
2022-12-03T22:03:17.903Z,98340.56
2022-12-03T22:05:44.549Z,98342.28
2022-12-03T22:08:11.349Z,98341.53
2022-12-03T22:10:37.995Z,98344.13
2022-12-03T22:13:04.700Z,98346.56
2022-12-03T22:15:31.239Z,98344.69
2022-12-03T22:17:57.905Z,98336.88
2022-12-03T22:20:24.568Z,98340.25
2022-12-03T22:22:51.240Z,98341.91
2022-12-03T22:25:17.886Z,98337.69
2022-12-03T22:27:44.566Z,98329.28
2022-12-03T22:30:11.300Z,98332.78
2022-12-03T22:32:37.885Z,98327.03
2022-12-03T22:35:04.918Z,98323.66
2022-12-03T22:37:32.825Z,98328.75
2022-12-03T22:39:59.553Z,98317.72
2022-12-03T22:42:26.371Z,98322.44
2022-12-03T22:44:53.112Z,98323.25
2022-12-03T22:47:19.729Z,98309.91
2022-12-03T22:49:46.460Z,98313.31
2022-12-03T22:52:13.179Z,98301.66
2022-12-03T22:54:39.787Z,98297.44
2022-12-03T22:57:06.477Z,98304.00
2022-12-03T22:59:33.125Z,98305.59
2022-12-03T23:01:59.765Z,98298.84
2022-12-03T23:04:26.419Z,98290.44
2022-12-03T23:06:53.110Z,98296.94
2022-12-03T23:09:20.052Z,98292.09
2022-12-03T23:11:46.922Z,98285.28
2022-12-03T23:14:14.075Z,98288.63
2022-12-03T23:16:41.117Z,98287.81
2022-12-03T23:19:07.947Z,98281.84
2022-12-03T23:21:35.476Z,98269.84
2022-12-03T23:24:03.953Z,98266.47
2022-12-03T23:26:33.281Z,98264.66
2022-12-03T23:29:00.405Z,98263.03
2022-12-03T23:31:29.822Z,98261.22
2022-12-03T23:33:57.674Z,98257.00
2022-12-03T23:36:26.502Z,98245.22
2022-12-03T23:38:53.666Z,98249.56
2022-12-03T23:41:21.997Z,98243.75
2022-12-03T23:43:49.002Z,98248.31
2022-12-03T23:46:18.940Z,98245.81
2022-12-03T23:48:45.695Z,98243.19
2022-12-03T23:51:16.186Z,98246.44
2022-12-03T23:53:43.290Z,98242.03
2022-12-03T23:56:13.701Z,98248.75
2022-12-03T23:58:40.792Z,98248.59
